Coalville, Iowa
Current Conditions -  °F | °C
As of 11:55 PM on Saturday 20 Dec 2014 (Local Time) from KFOD Reporting Station
Overcast Overcast  
Wind Chill: 30°   Ceiling: 500
Heat Index: 34°   Visibility: 3mi
Dew Point: 30°   Wind: 5mph
Humidity: 87%   Direction: 160°SSE
Pressure: 30.05"   Gusts: NA
Location:  42.5075°N, 94.2531°W
Report Text: KFOD 210555Z AUTO 16004KT 3SM OVC005 01/M01 A3005 RMK AO1 10010 20000 57014
Loading
Personal Weather Stations






























Interactive Weather Map New forecast layout! Learn more

10-Day Weather Forecast

Advertisements
Track Severe Weather on mobile